createdAt,value
2018-03-22T00:00:08.106Z,6.30
2018-03-22T00:02:33.865Z,6.30
2018-03-22T00:04:59.615Z,6.30
2018-03-22T00:07:25.650Z,6.24
2018-03-22T00:09:51.405Z,6.23
2018-03-22T00:12:17.153Z,6.26
2018-03-22T00:14:42.956Z,6.25
2018-03-22T00:17:08.711Z,6.23
2018-03-22T00:19:34.479Z,6.29
2018-03-22T00:22:00.240Z,6.29
2018-03-22T00:24:25.998Z,6.23
2018-03-22T00:26:52.087Z,6.20
2018-03-22T00:29:17.859Z,6.22
2018-03-22T00:31:43.607Z,6.05
2018-03-22T00:34:09.361Z,6.22
2018-03-22T00:36:35.150Z,6.19
2018-03-22T00:39:00.897Z,6.16
2018-03-22T00:41:26.653Z,6.18
2018-03-22T00:43:52.429Z,6.18
2018-03-22T00:46:18.176Z,6.20
2018-03-22T00:48:43.922Z,6.20
2018-03-22T00:51:09.695Z,6.22
2018-03-22T00:53:35.957Z,6.25
2018-03-22T00:56:01.729Z,6.26
2018-03-22T00:58:27.481Z,6.28
2018-03-22T01:00:53.265Z,6.26
2018-03-22T01:03:19.054Z,6.26
2018-03-22T01:05:44.813Z,6.20
2018-03-22T01:08:10.566Z,6.14
2018-03-22T01:10:36.620Z,6.10
2018-03-22T01:13:02.399Z,6.17
2018-03-22T01:15:28.156Z,6.24
2018-03-22T01:17:53.982Z,6.25
2018-03-22T01:20:19.735Z,6.30
2018-03-22T01:22:45.482Z,6.31
2018-03-22T01:25:11.244Z,6.28
2018-03-22T01:27:37.356Z,6.28
2018-03-22T01:30:03.116Z,6.26
2018-03-22T01:32:28.876Z,6.27
2018-03-22T01:34:54.625Z,6.29
2018-03-22T01:37:20.368Z,6.32
2018-03-22T01:39:46.126Z,6.30
2018-03-22T01:42:11.873Z,6.23
2018-03-22T01:44:37.624Z,6.20
2018-03-22T01:47:03.379Z,6.20
2018-03-22T01:49:29.114Z,6.18
2018-03-22T01:51:55.317Z,6.15
2018-03-22T01:54:21.105Z,6.14
2018-03-22T01:56:46.852Z,6.08
2018-03-22T01:59:12.596Z,6.04
2018-03-22T02:01:38.390Z,5.98
2018-03-22T02:04:04.170Z,6.01
2018-03-22T02:06:29.916Z,5.96
2018-03-22T02:08:56.005Z,5.91
2018-03-22T02:11:21.829Z,5.89
2018-03-22T02:13:47.569Z,5.82
2018-03-22T02:16:13.332Z,5.69
2018-03-22T02:18:39.104Z,5.67
2018-03-22T02:21:04.853Z,5.67
2018-03-22T02:23:30.675Z,5.67
2018-03-22T02:25:56.768Z,5.65
2018-03-22T02:28:22.519Z,5.65
2018-03-22T02:30:48.282Z,5.63
2018-03-22T02:33:14.029Z,5.58
2018-03-22T02:35:39.814Z,5.55
2018-03-22T02:38:05.566Z,5.53
2018-03-22T02:40:31.382Z,5.47
2018-03-22T02:42:57.274Z,5.39
2018-03-22T02:45:23.056Z,5.39
2018-03-22T02:47:48.801Z,5.37
2018-03-22T02:50:14.558Z,5.42
2018-03-22T02:52:40.332Z,5.47
2018-03-22T02:55:06.090Z,5.49
2018-03-22T02:57:31.844Z,5.47
2018-03-22T02:59:57.964Z,5.47
2018-03-22T03:02:23.823Z,5.49
2018-03-22T03:04:49.603Z,5.47
2018-03-22T03:07:15.453Z,5.45
2018-03-22T03:09:41.233Z,5.46
2018-03-22T03:15:09.976Z,5.44
2018-03-22T03:17:35.761Z,5.37
2018-03-22T03:20:01.544Z,5.34
2018-03-22T03:22:27.352Z,5.28
2018-03-22T03:24:53.794Z,5.25
2018-03-22T03:27:19.855Z,5.21
2018-03-22T03:29:45.614Z,5.14
2018-03-22T03:32:11.389Z,5.08
2018-03-22T03:34:37.182Z,5.04
2018-03-22T03:37:02.947Z,5.03
2018-03-22T03:39:28.717Z,5.06
2018-03-22T03:41:54.511Z,5.03
2018-03-22T03:44:20.693Z,5.02
2018-03-22T03:46:46.461Z,5.03
2018-03-22T03:49:12.205Z,5.04
2018-03-22T03:51:37.954Z,5.01
2018-03-22T03:54:03.800Z,4.99
2018-03-22T03:56:29.557Z,4.92
2018-03-22T03:58:55.320Z,4.96
2018-03-22T04:01:21.460Z,4.79
2018-03-22T04:03:47.278Z,4.94
2018-03-22T04:06:13.064Z,4.95
2018-03-22T04:08:38.827Z,4.94
2018-03-22T04:11:04.581Z,4.88
2018-03-22T04:13:30.332Z,4.91
2018-03-22T04:15:56.089Z,4.87
2018-03-22T04:18:21.839Z,4.91
2018-03-22T04:20:47.579Z,4.90
2018-03-22T04:23:13.946Z,4.89
2018-03-22T04:25:39.696Z,4.90
2018-03-22T04:28:05.476Z,4.93
2018-03-22T04:30:31.238Z,4.95
2018-03-22T04:32:56.997Z,4.96
2018-03-22T04:35:22.729Z,5.02
2018-03-22T04:37:48.501Z,5.05
2018-03-22T04:40:14.244Z,5.04
2018-03-22T04:42:40.027Z,5.06
2018-03-22T04:45:05.806Z,5.03
2018-03-22T04:47:31.534Z,4.97
2018-03-22T04:49:57.278Z,4.90
2018-03-22T04:52:23.437Z,4.96
2018-03-22T04:54:49.183Z,5.00
2018-03-22T04:57:14.919Z,5.03
2018-03-22T04:59:40.708Z,5.04
2018-03-22T05:02:06.457Z,5.01
2018-03-22T05:04:47.145Z,5.01
2018-03-22T05:07:12.881Z,5.03
2018-03-22T05:09:38.657Z,5.07
2018-03-22T05:12:04.417Z,5.10
2018-03-22T05:14:30.191Z,5.15
2018-03-22T05:16:55.932Z,5.21
2018-03-22T05:19:21.690Z,5.25
2018-03-22T05:21:47.420Z,5.27
2018-03-22T05:24:13.590Z,5.22
2018-03-22T05:26:39.344Z,5.27
2018-03-22T05:29:05.160Z,5.29
2018-03-22T05:31:30.949Z,5.30
2018-03-22T05:33:56.701Z,5.32
2018-03-22T05:36:22.498Z,5.34
2018-03-22T05:38:48.261Z,5.34
2018-03-22T05:41:14.024Z,5.30
2018-03-22T05:43:39.792Z,5.43
2018-03-22T05:46:05.549Z,5.41
2018-03-22T05:48:31.339Z,5.40
2018-03-22T05:50:57.077Z,5.39
2018-03-22T05:53:23.434Z,5.46
2018-03-22T05:55:49.207Z,5.48
2018-03-22T05:58:14.996Z,5.48
2018-03-22T06:00:40.740Z,5.53
2018-03-22T06:03:06.588Z,5.59
2018-03-22T06:05:32.323Z,5.58
2018-03-22T06:07:58.060Z,5.62
2018-03-22T06:10:23.832Z,5.67
2018-03-22T06:12:49.577Z,5.71
2018-03-22T06:15:15.313Z,5.72
2018-03-22T06:17:41.082Z,5.77
2018-03-22T06:20:06.835Z,5.80
2018-03-22T06:22:32.719Z,5.71
2018-03-22T06:24:58.481Z,5.79
2018-03-22T06:27:24.252Z,5.79
2018-03-22T06:29:50.010Z,5.89
2018-03-22T06:32:15.757Z,5.95
2018-03-22T06:34:41.525Z,5.99
2018-03-22T06:37:07.308Z,6.00
2018-03-22T06:39:33.075Z,6.03
2018-03-22T06:41:58.825Z,5.99
2018-03-22T06:44:24.600Z,6.01
2018-03-22T06:46:50.397Z,6.05
2018-03-22T06:49:16.168Z,6.13
2018-03-22T06:51:41.941Z,6.21
2018-03-22T06:54:08.188Z,6.07
2018-03-22T06:56:33.931Z,6.29
2018-03-22T06:58:59.697Z,6.32
2018-03-22T07:01:25.441Z,6.24
2018-03-22T07:03:51.221Z,6.27
2018-03-22T07:06:16.981Z,6.26
2018-03-22T07:08:42.753Z,6.28
2018-03-22T07:11:08.517Z,6.36
2018-03-22T07:13:34.274Z,6.44
2018-03-22T07:16:00.047Z,6.48
2018-03-22T07:18:25.833Z,6.51
2018-03-22T07:20:51.589Z,6.57
2018-03-22T07:23:17.321Z,6.62
2018-03-22T07:25:43.459Z,6.71
2018-03-22T07:28:09.128Z,6.76
2018-03-22T07:30:34.774Z,6.71
2018-03-22T07:33:00.468Z,6.70
2018-03-22T07:35:26.144Z,6.69
2018-03-22T07:37:51.815Z,6.72
2018-03-22T07:40:17.517Z,6.80
2018-03-22T07:42:43.218Z,6.86
2018-03-22T07:45:08.912Z,6.93
2018-03-22T07:47:34.613Z,7.01
2018-03-22T07:50:00.292Z,7.09
2018-03-22T07:52:26.076Z,7.17
2018-03-22T07:54:51.781Z,7.23
2018-03-22T07:57:17.952Z,7.30
2018-03-22T07:59:43.661Z,7.32
2018-03-22T08:02:09.361Z,7.35
2018-03-22T08:04:35.033Z,7.32
2018-03-22T08:07:00.716Z,7.36
2018-03-22T08:09:26.427Z,7.36
2018-03-22T08:11:52.108Z,7.33
2018-03-22T08:14:17.973Z,7.31
2018-03-22T08:16:43.670Z,7.34
2018-03-22T08:19:09.331Z,7.39
2018-03-22T08:21:34.980Z,7.44
2018-03-22T08:24:15.601Z,7.43
2018-03-22T08:26:41.259Z,7.44
2018-03-22T08:29:06.907Z,7.44
2018-03-22T08:31:32.961Z,7.39
2018-03-22T08:33:58.572Z,7.40
2018-03-22T08:36:24.224Z,7.42
2018-03-22T08:38:49.879Z,7.49
2018-03-22T08:41:15.592Z,7.53
2018-03-22T08:43:41.220Z,7.58
2018-03-22T08:46:06.888Z,7.66
2018-03-22T08:48:32.549Z,7.67
2018-03-22T08:50:58.193Z,7.73
2018-03-22T08:53:23.892Z,7.80
2018-03-22T08:55:49.556Z,7.84
2018-03-22T08:58:15.740Z,7.92
2018-03-22T09:00:41.408Z,7.97
2018-03-22T09:03:07.073Z,7.98
2018-03-22T09:05:32.720Z,8.02
2018-03-22T09:07:58.376Z,8.08
2018-03-22T09:10:24.032Z,8.11
2018-03-22T09:12:49.708Z,8.16
2018-03-22T09:15:15.356Z,8.22
2018-03-22T09:17:41.004Z,8.30
2018-03-22T09:20:07.068Z,8.30
2018-03-22T09:22:32.744Z,8.33
2018-03-22T09:24:58.409Z,8.36
2018-03-22T09:27:24.110Z,8.36
2018-03-22T09:29:49.768Z,8.35
2018-03-22T09:32:15.429Z,8.40
2018-03-22T09:34:41.092Z,8.39
2018-03-22T09:37:06.736Z,8.41
2018-03-22T09:39:32.390Z,8.41
2018-03-22T09:41:58.068Z,8.46
2018-03-22T09:44:23.708Z,8.52
2018-03-22T09:46:49.361Z,8.51
2018-03-22T09:49:15.061Z,8.59
2018-03-22T09:51:40.964Z,8.73
2018-03-22T09:54:06.612Z,8.79
2018-03-22T09:56:32.306Z,8.85
2018-03-22T09:58:57.964Z,8.87
2018-03-22T10:01:23.617Z,8.91
2018-03-22T10:03:49.309Z,8.93
2018-03-22T10:06:14.967Z,8.92
2018-03-22T10:08:40.620Z,8.96
2018-03-22T10:11:06.300Z,9.02
2018-03-22T10:13:32.015Z,8.99
2018-03-22T10:15:57.696Z,9.04
2018-03-22T10:18:23.365Z,9.00
2018-03-22T10:20:49.024Z,9.05
2018-03-22T10:23:15.029Z,9.10
2018-03-22T10:25:40.712Z,9.19
2018-03-22T10:28:06.361Z,9.27
2018-03-22T10:30:32.048Z,9.30
2018-03-22T10:32:57.730Z,9.39
2018-03-22T10:35:23.393Z,9.42
2018-03-22T10:37:49.048Z,9.38
2018-03-22T10:40:15.210Z,9.34
2018-03-22T10:42:40.860Z,9.39
2018-03-22T10:45:06.517Z,9.45
2018-03-22T10:47:32.224Z,9.39
2018-03-22T10:49:57.873Z,9.44
2018-03-22T10:52:23.532Z,9.45
2018-03-22T10:54:49.202Z,9.62
2018-03-22T10:57:15.326Z,9.70
2018-03-22T10:59:40.989Z,9.75
2018-03-22T11:02:12.850Z,9.77
2018-03-22T11:04:38.498Z,9.83
2018-03-22T11:07:04.213Z,9.91
2018-03-22T11:09:29.898Z,10.03
2018-03-22T11:11:55.564Z,10.03
2018-03-22T11:14:21.275Z,9.97
2018-03-22T11:16:46.926Z,10.05
2018-03-22T11:19:13.022Z,9.99
2018-03-22T11:21:38.687Z,10.08
2018-03-22T11:24:04.327Z,10.03
2018-03-22T11:26:29.997Z,10.11
2018-03-22T11:28:55.668Z,10.21
2018-03-22T11:31:21.321Z,10.17
2018-03-22T11:33:46.973Z,9.97
2018-03-22T11:36:12.981Z,9.86
2018-03-22T11:38:38.668Z,9.81
2018-03-22T11:41:04.326Z,9.88
2018-03-22T11:43:30.004Z,9.93
2018-03-22T11:45:55.672Z,9.99
2018-03-22T11:48:21.329Z,10.10
2018-03-22T11:50:47.004Z,10.12
2018-03-22T11:53:12.833Z,10.11
2018-03-22T11:55:38.496Z,10.12
2018-03-22T11:58:04.193Z,10.05
2018-03-22T12:00:29.861Z,9.94
2018-03-22T12:02:55.507Z,10.00
2018-03-22T12:05:21.164Z,10.10
2018-03-22T12:07:46.833Z,10.02
2018-03-22T12:10:12.508Z,10.06
2018-03-22T12:12:38.192Z,10.26
2018-03-22T12:15:03.844Z,10.22
2018-03-22T12:17:29.537Z,10.13
2018-03-22T12:19:55.609Z,10.12
2018-03-22T12:22:21.257Z,10.10
2018-03-22T12:24:46.955Z,10.08
2018-03-22T12:27:12.605Z,10.01
2018-03-22T12:29:38.281Z,10.04
2018-03-22T12:32:03.961Z,10.02
2018-03-22T12:34:29.649Z,9.93
2018-03-22T12:36:55.637Z,9.95
2018-03-22T12:39:21.313Z,9.90
2018-03-22T12:41:46.965Z,9.93
2018-03-22T12:44:12.612Z,9.74
2018-03-22T12:46:38.290Z,9.63
2018-03-22T12:49:03.960Z,9.61
2018-03-22T12:51:29.618Z,9.44
2018-03-22T12:53:55.756Z,9.43
2018-03-22T12:56:21.402Z,9.39
2018-03-22T12:58:47.048Z,9.37
2018-03-22T13:01:12.720Z,9.36
2018-03-22T13:03:38.369Z,9.42
2018-03-22T13:06:04.021Z,9.28
2018-03-22T13:08:29.680Z,9.12
2018-03-22T13:10:55.323Z,9.03
2018-03-22T13:13:20.998Z,8.96
2018-03-22T13:15:46.673Z,9.13
2018-03-22T13:18:12.334Z,9.17
2018-03-22T13:20:38.010Z,9.23
2018-03-22T13:23:03.668Z,9.25
2018-03-22T13:25:29.318Z,9.23
2018-03-22T13:27:55.508Z,9.14
2018-03-22T13:30:21.160Z,9.28
2018-03-22T13:32:46.835Z,9.43
2018-03-22T13:35:12.521Z,9.57
2018-03-22T13:37:38.176Z,9.60
2018-03-22T13:40:03.845Z,9.32
2018-03-22T13:42:29.517Z,9.35
2018-03-22T13:44:55.197Z,9.34
2018-03-22T13:47:20.856Z,9.31
2018-03-22T13:49:46.545Z,9.31
2018-03-22T13:52:12.230Z,9.30
2018-03-22T13:54:38.244Z,9.23
2018-03-22T13:57:03.922Z,9.17
2018-03-22T13:59:29.588Z,9.07
2018-03-22T14:01:55.243Z,8.97
2018-03-22T14:04:20.933Z,8.90
2018-03-22T14:06:46.593Z,8.87
2018-03-22T14:09:12.252Z,8.85
2018-03-22T14:11:37.917Z,8.80
2018-03-22T14:14:03.573Z,8.79
2018-03-22T14:16:29.224Z,8.72
2018-03-22T14:18:54.896Z,8.72
2018-03-22T14:21:20.844Z,8.61
2018-03-22T14:23:46.496Z,8.62
2018-03-22T14:26:12.177Z,8.53
2018-03-22T14:28:37.818Z,8.51
2018-03-22T14:31:03.467Z,8.53
2018-03-22T14:33:29.132Z,8.52
2018-03-22T14:35:54.789Z,8.43
2018-03-22T14:38:20.444Z,8.43
2018-03-22T14:40:46.128Z,8.43
2018-03-22T14:43:11.805Z,8.37
2018-03-22T14:45:37.465Z,8.43
2018-03-22T14:48:03.177Z,8.37
2018-03-22T14:50:28.877Z,8.45
2018-03-22T14:52:54.533Z,8.48
2018-03-22T14:55:20.697Z,8.51
2018-03-22T14:57:46.361Z,8.60
2018-03-22T15:00:12.008Z,8.56
2018-03-22T15:02:37.676Z,8.54
2018-03-22T15:05:03.343Z,8.63
2018-03-22T15:07:29.000Z,8.66
2018-03-22T15:09:54.675Z,8.67
2018-03-22T15:12:20.357Z,8.65
2018-03-22T15:14:46.037Z,8.66
2018-03-22T15:17:11.685Z,8.71
2018-03-22T15:19:37.351Z,8.61
2018-03-22T15:22:03.051Z,8.54
2018-03-22T15:24:29.446Z,8.54
2018-03-22T15:26:55.096Z,8.47
2018-03-22T15:29:20.777Z,8.40
2018-03-22T15:31:46.422Z,8.43
2018-03-22T15:34:12.092Z,8.50
2018-03-22T15:36:37.760Z,8.45
2018-03-22T15:39:03.409Z,8.44
2018-03-22T15:41:29.084Z,8.52
2018-03-22T15:43:54.740Z,8.58
2018-03-22T15:46:20.401Z,8.59
2018-03-22T15:48:46.058Z,8.55
2018-03-22T15:51:12.124Z,8.51
2018-03-22T15:53:37.779Z,8.47
2018-03-22T15:56:03.439Z,8.37
2018-03-22T15:58:29.091Z,8.17
2018-03-22T16:00:54.752Z,8.05
2018-03-22T16:03:20.408Z,8.15
2018-03-22T16:05:46.153Z,8.17
2018-03-22T16:08:12.235Z,8.21
2018-03-22T16:10:37.897Z,8.15
2018-03-22T16:13:03.560Z,8.24
2018-03-22T16:15:29.216Z,8.31
2018-03-22T16:17:54.881Z,8.22
2018-03-22T16:20:20.561Z,8.20
2018-03-22T16:22:46.244Z,8.09
2018-03-22T16:25:12.248Z,8.07
2018-03-22T16:27:37.939Z,8.17
2018-03-22T16:30:03.621Z,8.20
2018-03-22T16:32:29.276Z,8.23
2018-03-22T16:34:54.972Z,8.21
2018-03-22T16:37:20.655Z,8.20
2018-03-22T16:39:46.329Z,8.19
2018-03-22T16:42:12.016Z,8.23
2018-03-22T16:44:37.681Z,8.20
2018-03-22T16:47:03.344Z,8.22
2018-03-22T16:49:29.049Z,8.26
2018-03-22T16:51:54.709Z,8.26
2018-03-22T16:54:20.377Z,8.21
2018-03-22T16:56:46.392Z,8.17
2018-03-22T16:59:12.055Z,8.10
2018-03-22T17:01:37.712Z,8.10
2018-03-22T17:04:03.393Z,8.14
2018-03-22T17:06:29.065Z,8.21
2018-03-22T17:08:54.721Z,8.25
2018-03-22T17:11:20.372Z,8.26
2018-03-22T17:13:46.025Z,8.25
2018-03-22T17:16:11.706Z,8.26
2018-03-22T17:18:37.374Z,8.18
2018-03-22T17:21:03.042Z,8.13
2018-03-22T17:23:29.176Z,8.06
2018-03-22T17:25:54.820Z,8.03
2018-03-22T17:28:20.487Z,7.97
2018-03-22T17:30:46.169Z,7.83
2018-03-22T17:33:11.824Z,7.80
2018-03-22T17:35:37.479Z,7.83
2018-03-22T17:38:03.139Z,7.75
2018-03-22T17:40:28.804Z,7.86
2018-03-22T17:42:54.494Z,7.93
2018-03-22T17:45:20.164Z,8.00
2018-03-22T17:47:45.820Z,8.07
2018-03-22T17:50:11.824Z,8.12
2018-03-22T17:52:37.484Z,7.99
2018-03-22T17:55:03.145Z,8.18
2018-03-22T17:57:28.858Z,8.17
2018-03-22T17:59:54.504Z,8.14
2018-03-22T18:02:20.161Z,8.04
2018-03-22T18:04:45.856Z,8.06
2018-03-22T18:07:11.512Z,8.07
2018-03-22T18:09:37.213Z,8.04
2018-03-22T18:12:02.925Z,8.06
2018-03-22T18:14:28.584Z,8.00
2018-03-22T18:16:54.276Z,7.95
2018-03-22T18:19:19.928Z,7.89
2018-03-22T18:21:45.580Z,7.89
2018-03-22T18:24:11.593Z,7.91
2018-03-22T18:26:37.252Z,7.93
2018-03-22T18:29:02.900Z,7.92
2018-03-22T18:31:28.577Z,7.86
2018-03-22T18:33:54.256Z,7.87
2018-03-22T18:36:19.916Z,7.91
2018-03-22T18:38:45.592Z,7.91
2018-03-22T18:41:11.244Z,7.87
2018-03-22T18:43:36.892Z,7.82
2018-03-22T18:46:02.577Z,7.85
2018-03-22T18:48:28.229Z,7.85
2018-03-22T18:50:54.205Z,7.81
2018-03-22T18:53:19.901Z,7.78
2018-03-22T18:55:45.554Z,7.68
2018-03-22T18:58:11.214Z,7.65
2018-03-22T19:00:36.908Z,7.61
2018-03-22T19:03:02.584Z,7.54
2018-03-22T19:05:28.253Z,7.54
2018-03-22T19:07:53.924Z,7.55
2018-03-22T19:10:19.576Z,7.55
2018-03-22T19:12:45.291Z,7.49
2018-03-22T19:15:10.969Z,7.53
2018-03-22T19:17:36.628Z,7.43
2018-03-22T19:20:02.930Z,7.37
2018-03-22T19:22:28.617Z,7.38
2018-03-22T19:24:54.264Z,7.29
2018-03-22T19:27:19.931Z,7.32
2018-03-22T19:29:46.757Z,7.37
2018-03-22T19:32:12.419Z,7.38
2018-03-22T19:34:38.088Z,7.35
2018-03-22T19:37:03.781Z,7.38
2018-03-22T19:39:29.424Z,7.36
2018-03-22T19:41:55.101Z,7.31
2018-03-22T19:44:20.804Z,7.28
2018-03-22T19:46:46.439Z,7.25
2018-03-22T19:49:12.108Z,7.23
2018-03-22T19:51:38.155Z,7.18
2018-03-22T19:54:03.804Z,7.14
2018-03-22T19:56:29.480Z,7.17
2018-03-22T19:58:55.159Z,7.19
2018-03-22T20:01:20.812Z,7.20
2018-03-22T20:03:46.472Z,7.24
2018-03-22T20:06:12.116Z,7.25
2018-03-22T20:08:37.762Z,7.24
2018-03-22T20:11:03.444Z,7.22
2018-03-22T20:13:29.102Z,7.19
2018-03-22T20:15:54.754Z,7.17
2018-03-22T20:18:20.537Z,7.12
2018-03-22T20:20:46.281Z,7.09
2018-03-22T20:23:12.033Z,7.09
2018-03-22T20:25:38.092Z,7.12
2018-03-22T20:28:03.766Z,7.18
2018-03-22T20:30:29.429Z,7.14
2018-03-22T20:32:55.113Z,7.14
2018-03-22T20:35:20.763Z,7.21
2018-03-22T20:37:46.409Z,7.16
2018-03-22T20:40:12.096Z,7.15
2018-03-22T20:42:37.768Z,7.18
2018-03-22T20:45:03.425Z,7.14
2018-03-22T20:47:29.140Z,7.10
2018-03-22T20:49:54.791Z,7.15
2018-03-22T20:52:20.749Z,7.16
2018-03-22T20:54:46.445Z,7.13
2018-03-22T20:57:12.114Z,7.10
2018-03-22T20:59:37.789Z,7.11
2018-03-22T21:02:03.457Z,7.17
2018-03-22T21:04:29.144Z,7.23
2018-03-22T21:06:54.806Z,7.24
2018-03-22T21:09:20.825Z,7.24
2018-03-22T21:11:46.461Z,7.21
2018-03-22T21:14:12.117Z,7.18
2018-03-22T21:16:37.800Z,7.15
2018-03-22T21:19:03.458Z,7.17
2018-03-22T21:21:29.144Z,7.14
2018-03-22T21:23:54.804Z,7.12
2018-03-22T21:26:20.886Z,7.13
2018-03-22T21:28:46.528Z,7.09
2018-03-22T21:31:12.218Z,7.06
2018-03-22T21:33:37.884Z,7.05
2018-03-22T21:36:03.536Z,7.04
2018-03-22T21:38:29.197Z,7.10
2018-03-22T21:40:54.848Z,7.12
2018-03-22T21:43:20.500Z,7.08
2018-03-22T21:45:46.175Z,7.10
2018-03-22T21:48:11.833Z,7.11
2018-03-22T21:50:43.466Z,7.07
2018-03-22T21:53:09.123Z,7.10
2018-03-22T21:55:35.119Z,7.08
2018-03-22T21:58:00.808Z,7.08
2018-03-22T22:00:26.470Z,7.07
2018-03-22T22:02:52.125Z,7.03
2018-03-22T22:05:17.789Z,7.02
2018-03-22T22:07:43.443Z,7.03
2018-03-22T22:10:09.092Z,7.07
2018-03-22T22:12:34.764Z,7.03
2018-03-22T22:15:00.429Z,6.99
2018-03-22T22:17:26.084Z,6.96
2018-03-22T22:19:51.756Z,6.98
2018-03-22T22:22:17.790Z,6.88
2018-03-22T22:24:43.435Z,6.88
2018-03-22T22:27:09.132Z,6.90
2018-03-22T22:29:34.773Z,6.89
2018-03-22T22:32:00.420Z,6.88
2018-03-22T22:34:26.105Z,6.90
2018-03-22T22:36:51.751Z,6.86
2018-03-22T22:39:17.417Z,6.72
2018-03-22T22:41:43.083Z,6.66
2018-03-22T22:44:08.772Z,6.63
2018-03-22T22:46:34.421Z,6.52
2018-03-22T22:49:00.093Z,6.57
2018-03-22T22:51:25.744Z,6.62
2018-03-22T22:53:51.696Z,6.52
2018-03-22T22:56:17.352Z,6.45
2018-03-22T22:58:43.013Z,6.28
2018-03-22T23:01:08.680Z,6.28
2018-03-22T23:03:34.365Z,6.33
2018-03-22T23:06:00.033Z,6.38
2018-03-22T23:08:25.700Z,6.42
2018-03-22T23:10:51.384Z,6.47
2018-03-22T23:13:17.032Z,6.57
2018-03-22T23:15:42.700Z,6.51
2018-03-22T23:18:08.362Z,6.32
2018-03-22T23:20:34.012Z,6.35
2018-03-22T23:23:00.111Z,6.43
2018-03-22T23:25:25.800Z,6.42
2018-03-22T23:27:51.469Z,6.33
2018-03-22T23:30:17.116Z,6.29
2018-03-22T23:32:42.792Z,6.38
2018-03-22T23:35:08.472Z,6.33
2018-03-22T23:37:34.146Z,6.32
2018-03-22T23:40:00.040Z,6.45
2018-03-22T23:42:25.736Z,6.46
2018-03-22T23:44:51.380Z,6.41
2018-03-22T23:47:17.052Z,6.44
2018-03-22T23:49:42.728Z,6.48
2018-03-22T23:52:08.400Z,6.54
2018-03-22T23:54:34.081Z,6.64
2018-03-22T23:56:59.732Z,6.71
2018-03-22T23:59:25.969Z,6.78
